createdAt,value
2018-11-02T00:00:04.839Z,11.37
2018-11-02T00:01:04.789Z,11.37
2018-11-02T00:02:04.762Z,11.37
2018-11-02T00:03:04.744Z,11.35
2018-11-02T00:04:04.717Z,11.38
2018-11-02T00:05:04.710Z,11.33
2018-11-02T00:06:04.731Z,11.37
2018-11-02T00:07:04.650Z,11.35
2018-11-02T00:08:04.627Z,11.34
2018-11-02T00:09:04.608Z,11.34
2018-11-02T00:10:04.580Z,11.34
2018-11-02T00:11:04.562Z,11.27
2018-11-02T00:12:04.547Z,11.43
2018-11-02T00:13:04.517Z,11.40
2018-11-02T00:14:04.489Z,11.35
2018-11-02T00:15:04.465Z,11.43
2018-11-02T00:16:04.444Z,11.35
2018-11-02T00:17:04.421Z,11.33
2018-11-02T00:18:04.401Z,11.33
2018-11-02T00:19:04.376Z,11.33
2018-11-02T00:20:04.358Z,11.35
2018-11-02T00:21:04.354Z,11.33
2018-11-02T00:22:04.306Z,11.37
2018-11-02T00:23:04.285Z,11.44
2018-11-02T00:24:04.263Z,11.38
2018-11-02T00:25:04.243Z,11.48
2018-11-02T00:26:04.216Z,11.38
2018-11-02T00:27:04.201Z,11.35
2018-11-02T00:28:04.171Z,11.44
2018-11-02T00:29:04.149Z,11.45
2018-11-02T00:30:04.128Z,11.45
2018-11-02T00:31:04.103Z,11.38
2018-11-02T00:32:04.259Z,11.44
2018-11-02T00:33:04.059Z,11.40
2018-11-02T00:34:04.036Z,11.49
2018-11-02T00:35:04.016Z,11.40
2018-11-02T00:36:03.990Z,11.48
2018-11-02T00:37:03.968Z,11.44
2018-11-02T00:38:03.944Z,11.44
2018-11-02T00:39:03.923Z,11.41
2018-11-02T00:40:03.902Z,11.41
2018-11-02T00:41:03.877Z,11.45
2018-11-02T00:42:03.855Z,11.41
2018-11-02T00:43:03.833Z,11.51
2018-11-02T00:44:03.887Z,11.41
2018-11-02T00:45:03.788Z,11.43
2018-11-02T00:46:03.765Z,11.43
2018-11-02T00:47:03.742Z,11.41
2018-11-02T00:48:03.719Z,11.48
2018-11-02T00:49:03.696Z,11.40
2018-11-02T00:50:03.677Z,11.41
2018-11-02T00:51:03.654Z,11.52
2018-11-02T00:52:03.630Z,11.44
2018-11-02T00:53:03.705Z,11.52
2018-11-02T00:54:03.586Z,11.38
2018-11-02T00:55:03.561Z,11.40
2018-11-02T00:56:03.540Z,11.41
2018-11-02T00:57:03.516Z,11.44
2018-11-02T00:58:03.494Z,11.41
2018-11-02T00:59:03.473Z,11.49
2018-11-02T01:00:03.449Z,11.43
2018-11-02T01:01:03.425Z,11.53
2018-11-02T01:02:03.404Z,11.35
2018-11-02T01:03:03.386Z,11.38
2018-11-02T01:04:03.358Z,11.41
2018-11-02T01:05:03.342Z,11.51
2018-11-02T01:06:03.325Z,11.44
2018-11-02T01:07:03.292Z,11.40
2018-11-02T01:08:03.267Z,11.37
2018-11-02T01:09:03.246Z,11.51
2018-11-02T01:10:03.223Z,11.49
2018-11-02T01:11:03.231Z,11.44
2018-11-02T01:12:03.186Z,11.49
2018-11-02T01:13:03.159Z,11.52
2018-11-02T01:14:03.133Z,11.52
2018-11-02T01:15:03.111Z,11.58
2018-11-02T01:16:03.088Z,11.49
2018-11-02T01:17:03.065Z,11.53
2018-11-02T01:18:03.059Z,11.51
2018-11-02T01:19:03.025Z,11.53
2018-11-02T01:20:02.998Z,11.49
2018-11-02T01:21:02.975Z,11.52
2018-11-02T01:22:02.977Z,11.49
2018-11-02T01:23:02.931Z,11.52
2018-11-02T01:24:03.289Z,11.52
2018-11-02T01:25:02.886Z,11.56
2018-11-02T01:26:02.899Z,11.53
2018-11-02T01:27:02.841Z,11.49
2018-11-02T01:28:02.817Z,11.52
2018-11-02T01:29:02.816Z,11.53
2018-11-02T01:30:02.772Z,11.52
2018-11-02T01:31:02.755Z,11.49
2018-11-02T01:32:02.727Z,11.48
2018-11-02T01:33:02.708Z,11.58
2018-11-02T01:34:02.689Z,11.51
2018-11-02T01:35:02.659Z,11.51
2018-11-02T01:36:02.645Z,11.53
2018-11-02T01:37:02.616Z,11.51
2018-11-02T01:38:02.592Z,11.51
2018-11-02T01:39:02.584Z,11.45
2018-11-02T01:40:02.546Z,11.51
2018-11-02T01:41:02.548Z,11.48
2018-11-02T01:42:02.529Z,11.48
2018-11-02T01:43:02.486Z,11.53
2018-11-02T01:44:02.458Z,11.52
2018-11-02T01:45:02.435Z,11.43
2018-11-02T01:46:02.411Z,11.53
2018-11-02T01:47:02.389Z,11.52
2018-11-02T01:48:02.369Z,11.49
2018-11-02T01:49:02.344Z,11.45
2018-11-02T01:50:02.320Z,11.52
2018-11-02T01:51:02.298Z,11.48
2018-11-02T01:52:02.277Z,11.53
2018-11-02T01:53:02.257Z,11.48
2018-11-02T01:54:02.231Z,11.51
2018-11-02T01:55:02.208Z,11.52
2018-11-02T01:56:02.185Z,11.51
2018-11-02T01:57:02.211Z,11.43
2018-11-02T01:58:02.139Z,11.45
2018-11-02T01:59:02.117Z,11.44
2018-11-02T02:00:02.096Z,11.43
2018-11-02T02:01:02.073Z,11.38
2018-11-02T02:02:02.050Z,11.40
2018-11-02T02:03:02.070Z,11.37
2018-11-02T02:04:02.012Z,11.49
2018-11-02T02:05:01.984Z,11.43
2018-11-02T02:06:01.963Z,11.44
2018-11-02T02:07:01.942Z,11.40
2018-11-02T02:08:01.957Z,11.52
2018-11-02T02:09:01.893Z,11.44
2018-11-02T02:10:01.871Z,11.49
2018-11-02T02:11:01.848Z,11.56
2018-11-02T02:12:01.825Z,11.40
2018-11-02T02:13:01.868Z,11.45
2018-11-02T02:14:01.783Z,11.48
2018-11-02T02:15:01.759Z,11.53
2018-11-02T02:16:01.746Z,11.53
2018-11-02T02:17:01.713Z,11.45
2018-11-02T02:18:01.741Z,11.48
2018-11-02T02:19:01.673Z,11.52
2018-11-02T02:20:01.647Z,11.48
2018-11-02T02:21:01.626Z,11.48
2018-11-02T02:22:01.626Z,11.48
2018-11-02T02:23:01.578Z,11.49
2018-11-02T02:24:01.555Z,11.52
2018-11-02T02:25:01.532Z,11.49
2018-11-02T02:26:01.509Z,11.45
2018-11-02T02:27:01.490Z,11.45
2018-11-02T02:28:01.474Z,11.48
2018-11-02T02:29:01.445Z,11.53
2018-11-02T02:30:01.420Z,11.48
2018-11-02T02:31:01.397Z,11.49
2018-11-02T02:32:01.379Z,11.52
2018-11-02T02:33:01.352Z,11.43
2018-11-02T02:34:01.329Z,11.48
2018-11-02T02:35:01.306Z,11.53
2018-11-02T02:36:01.285Z,11.53
2018-11-02T02:37:01.262Z,11.55
2018-11-02T02:38:01.238Z,11.53
2018-11-02T02:39:01.216Z,11.44
2018-11-02T02:40:01.193Z,11.55
2018-11-02T02:41:01.180Z,11.55
2018-11-02T02:42:01.147Z,11.52
2018-11-02T02:43:01.132Z,11.51
2018-11-02T02:44:01.104Z,11.51
2018-11-02T02:45:01.083Z,11.52
2018-11-02T02:46:01.057Z,11.43
2018-11-02T02:47:01.037Z,11.49
2018-11-02T02:48:01.013Z,11.45
2018-11-02T02:49:00.991Z,11.51
2018-11-02T02:50:00.967Z,11.49
2018-11-02T02:51:00.972Z,11.55
2018-11-02T02:52:00.960Z,11.60
2018-11-02T02:53:00.905Z,11.58
2018-11-02T02:54:00.876Z,11.56
2018-11-02T02:55:00.853Z,11.55
2018-11-02T02:56:00.831Z,11.55
2018-11-02T02:57:00.811Z,11.55
2018-11-02T02:58:00.787Z,11.58
2018-11-02T02:59:00.777Z,11.60
2018-11-02T03:00:00.744Z,11.58
2018-11-02T03:01:00.719Z,11.60
2018-11-02T03:02:00.725Z,11.53
2018-11-02T03:03:00.674Z,11.53
2018-11-02T03:04:00.651Z,11.56
2018-11-02T03:05:00.630Z,11.60
2018-11-02T03:06:00.606Z,11.58
2018-11-02T03:07:00.584Z,11.55
2018-11-02T03:08:00.560Z,11.62
2018-11-02T03:09:00.540Z,11.62
2018-11-02T03:10:00.517Z,11.58
2018-11-02T03:11:00.680Z,11.59
2018-11-02T03:12:00.472Z,11.55
2018-11-02T03:13:00.447Z,11.62
2018-11-02T03:14:00.424Z,11.58
2018-11-02T03:15:00.403Z,11.56
2018-11-02T03:16:00.380Z,11.58
2018-11-02T03:17:00.357Z,11.60
2018-11-02T03:18:00.335Z,11.60
2018-11-02T03:19:00.312Z,11.56
2018-11-02T03:20:00.289Z,11.56
2018-11-02T03:21:00.268Z,11.56
2018-11-02T03:22:00.248Z,11.56
2018-11-02T03:23:00.221Z,11.62
2018-11-02T03:24:00.199Z,11.56
2018-11-02T03:25:00.177Z,11.56
2018-11-02T03:26:00.155Z,11.65
2018-11-02T03:27:00.132Z,11.59
2018-11-02T03:28:00.110Z,11.58
2018-11-02T03:29:00.094Z,11.55
2018-11-02T03:30:00.069Z,11.55
2018-11-02T03:31:00.043Z,11.62
2018-11-02T03:32:00.041Z,11.62
2018-11-02T03:32:59.996Z,11.59
2018-11-02T03:33:59.974Z,11.58
2018-11-02T03:34:59.953Z,11.63
2018-11-02T03:35:59.973Z,11.58
2018-11-02T03:36:59.911Z,11.62
2018-11-02T03:37:59.887Z,11.58
2018-11-02T03:38:59.862Z,11.62
2018-11-02T03:39:59.839Z,11.56
2018-11-02T03:40:59.821Z,11.60
2018-11-02T03:41:59.800Z,11.62
2018-11-02T03:42:59.771Z,11.58
2018-11-02T03:43:59.755Z,11.55
2018-11-02T03:44:59.743Z,11.56
2018-11-02T03:45:59.703Z,11.59
2018-11-02T03:46:59.682Z,11.60
2018-11-02T03:47:59.662Z,11.58
2018-11-02T03:48:59.636Z,11.60
2018-11-02T03:49:59.647Z,11.55
2018-11-02T03:50:59.589Z,11.58
2018-11-02T03:51:59.571Z,11.52
2018-11-02T03:52:59.547Z,11.56
2018-11-02T03:53:59.530Z,11.52
2018-11-02T03:54:59.508Z,11.53
2018-11-02T03:55:59.495Z,11.56
2018-11-02T03:56:59.506Z,11.56
2018-11-02T03:57:59.432Z,11.62
2018-11-02T03:58:59.409Z,11.62
2018-11-02T03:59:59.387Z,11.51
2018-11-02T04:00:59.365Z,11.53
2018-11-02T04:01:59.341Z,11.51
2018-11-02T04:02:59.332Z,11.62
2018-11-02T04:03:59.298Z,11.52
2018-11-02T04:04:59.274Z,11.56
2018-11-02T04:05:59.253Z,11.55
2018-11-02T04:06:59.231Z,11.51
2018-11-02T04:07:59.243Z,11.58
2018-11-02T04:08:59.185Z,11.58
2018-11-02T04:09:59.161Z,11.52
2018-11-02T04:10:59.140Z,11.63
2018-11-02T04:11:59.171Z,11.56
2018-11-02T04:12:59.096Z,11.65
2018-11-02T04:13:59.072Z,11.56
2018-11-02T04:14:59.056Z,11.55
2018-11-02T04:15:59.026Z,11.52
2018-11-02T04:16:59.005Z,11.56
2018-11-02T04:17:58.982Z,11.52
2018-11-02T04:18:58.959Z,11.58
2018-11-02T04:19:58.939Z,11.60
2018-11-02T04:20:58.934Z,11.59
2018-11-02T04:21:58.894Z,11.55
2018-11-02T04:22:58.869Z,11.60
2018-11-02T04:23:58.847Z,11.62
2018-11-02T04:24:58.828Z,11.60
2018-11-02T04:25:58.801Z,11.60
2018-11-02T04:26:58.779Z,11.58
2018-11-02T04:27:58.758Z,11.56
2018-11-02T04:28:58.733Z,11.55
2018-11-02T04:29:58.711Z,11.59
2018-11-02T04:30:58.737Z,11.51
2018-11-02T04:31:58.666Z,11.60
2018-11-02T04:32:58.646Z,11.56
2018-11-02T04:33:58.623Z,11.56
2018-11-02T04:34:58.598Z,11.58
2018-11-02T04:35:58.576Z,11.53
2018-11-02T04:36:58.556Z,11.56
2018-11-02T04:37:58.532Z,11.52
2018-11-02T04:38:58.509Z,11.55
2018-11-02T04:39:58.486Z,11.51
2018-11-02T04:40:58.463Z,11.48
2018-11-02T04:41:58.441Z,11.49
2018-11-02T04:42:58.421Z,11.51
2018-11-02T04:43:58.401Z,11.55
2018-11-02T04:44:58.381Z,11.48
2018-11-02T04:45:58.363Z,11.53
2018-11-02T04:46:58.330Z,11.43
2018-11-02T04:47:58.325Z,11.51
2018-11-02T04:48:58.286Z,11.43
2018-11-02T04:49:58.259Z,11.44
2018-11-02T04:50:58.313Z,11.45
2018-11-02T04:51:58.217Z,11.41
2018-11-02T04:52:58.193Z,11.48
2018-11-02T04:53:58.170Z,11.43
2018-11-02T04:54:58.148Z,11.35
2018-11-02T04:55:58.128Z,11.34
2018-11-02T04:56:58.103Z,11.31
2018-11-02T04:57:58.082Z,11.38
2018-11-02T04:58:58.058Z,11.35
2018-11-02T04:59:58.038Z,11.34
2018-11-02T05:00:58.012Z,11.33
2018-11-02T05:01:57.987Z,11.27
2018-11-02T05:02:57.967Z,11.33
2018-11-02T05:03:57.944Z,11.25
2018-11-02T05:04:57.923Z,11.40
2018-11-02T05:05:57.920Z,11.35
2018-11-02T05:06:57.888Z,11.26
2018-11-02T05:07:57.861Z,11.26
2018-11-02T05:08:57.849Z,11.23
2018-11-02T05:09:57.976Z,11.27
2018-11-02T05:10:57.785Z,11.26
2018-11-02T05:11:57.765Z,11.16
2018-11-02T05:12:57.779Z,11.26
2018-11-02T05:13:57.717Z,11.25
2018-11-02T05:14:57.700Z,11.22
2018-11-02T05:15:57.673Z,11.20
2018-11-02T05:16:57.650Z,11.15
2018-11-02T05:17:57.626Z,11.18
2018-11-02T05:18:57.608Z,11.18
2018-11-02T05:19:57.585Z,11.13
2018-11-02T05:20:57.569Z,11.08
2018-11-02T05:21:57.535Z,11.10
2018-11-02T05:22:57.516Z,11.05
2018-11-02T05:23:57.494Z,11.02
2018-11-02T05:24:57.468Z,11.04
2018-11-02T05:25:57.443Z,11.10
2018-11-02T05:26:57.422Z,11.12
2018-11-02T05:27:57.400Z,11.10
2018-11-02T05:28:57.381Z,11.08
2018-11-02T05:29:57.355Z,11.10
2018-11-02T05:30:57.336Z,11.04
2018-11-02T05:31:57.309Z,11.02
2018-11-02T05:32:57.286Z,11.04
2018-11-02T05:33:57.262Z,11.04
2018-11-02T05:34:57.243Z,11.00
2018-11-02T05:35:57.219Z,11.04
2018-11-02T05:36:57.195Z,10.98
2018-11-02T05:37:57.172Z,11.05
2018-11-02T05:38:57.158Z,11.02
2018-11-02T05:39:57.127Z,11.01
2018-11-02T05:40:57.106Z,10.98
2018-11-02T05:41:57.112Z,11.02
2018-11-02T05:42:57.057Z,11.02
2018-11-02T05:43:57.034Z,11.02
2018-11-02T05:44:57.036Z,11.10
2018-11-02T05:45:57.013Z,11.05
2018-11-02T05:46:56.970Z,11.05
2018-11-02T05:47:56.946Z,11.02
2018-11-02T05:48:56.921Z,11.05
2018-11-02T05:49:56.900Z,11.04
2018-11-02T05:50:56.875Z,10.98
2018-11-02T05:51:56.853Z,11.04
2018-11-02T05:52:56.832Z,11.00
2018-11-02T05:53:56.836Z,11.05
2018-11-02T05:54:56.788Z,11.08
2018-11-02T05:55:56.762Z,11.02
2018-11-02T05:56:56.738Z,11.00
2018-11-02T05:57:56.723Z,10.95
2018-11-02T05:58:56.706Z,11.00
2018-11-02T05:59:56.670Z,10.95
2018-11-02T06:00:56.651Z,11.02
2018-11-02T06:01:56.624Z,10.95
2018-11-02T06:02:56.603Z,10.94
2018-11-02T06:03:56.612Z,10.92
2018-11-02T06:04:56.556Z,10.90
2018-11-02T06:05:56.533Z,10.89
2018-11-02T06:06:56.511Z,10.86
2018-11-02T06:07:56.594Z,10.87
2018-11-02T06:08:56.465Z,10.89
2018-11-02T06:09:56.460Z,10.86
2018-11-02T06:10:56.440Z,10.87
2018-11-02T06:11:56.396Z,10.86
2018-11-02T06:12:56.393Z,10.87
2018-11-02T06:13:56.398Z,10.87
2018-11-02T06:14:56.336Z,10.83
2018-11-02T06:15:56.309Z,10.86
2018-11-02T06:16:56.379Z,10.84
2018-11-02T06:17:56.261Z,10.87
2018-11-02T06:18:56.240Z,10.86
2018-11-02T06:19:56.215Z,10.90
2018-11-02T06:20:56.191Z,10.84
2018-11-02T06:21:56.167Z,10.87
2018-11-02T06:22:56.144Z,10.90
2018-11-02T06:23:56.122Z,10.83
2018-11-02T06:24:56.099Z,10.89
2018-11-02T06:25:56.076Z,10.89
2018-11-02T06:26:56.055Z,10.94
2018-11-02T06:27:56.034Z,10.87
2018-11-02T06:28:56.027Z,10.90
2018-11-02T06:29:55.986Z,10.84
2018-11-02T06:30:55.962Z,10.94
2018-11-02T06:31:55.939Z,10.90
2018-11-02T06:32:55.916Z,10.92
2018-11-02T06:33:55.892Z,10.90
2018-11-02T06:34:55.878Z,10.95
2018-11-02T06:35:55.852Z,10.80
2018-11-02T06:36:55.826Z,10.94
2018-11-02T06:37:55.804Z,10.84
2018-11-02T06:38:55.862Z,10.94
2018-11-02T06:39:55.756Z,10.84
2018-11-02T06:40:55.737Z,10.86
2018-11-02T06:41:55.710Z,10.86
2018-11-02T06:42:55.692Z,10.83
2018-11-02T06:43:55.665Z,10.94
2018-11-02T06:44:55.747Z,10.95
2018-11-02T06:45:55.620Z,10.86
2018-11-02T06:46:55.597Z,10.87
2018-11-02T06:47:55.573Z,10.83
2018-11-02T06:48:55.551Z,10.89
2018-11-02T06:49:55.528Z,10.83
2018-11-02T06:50:55.585Z,10.92
2018-11-02T06:51:55.482Z,10.86
2018-11-02T06:52:55.460Z,10.92
2018-11-02T06:53:55.436Z,10.79
2018-11-02T06:54:55.414Z,10.83
2018-11-02T06:55:55.394Z,10.86
2018-11-02T06:56:55.369Z,10.84
2018-11-02T06:57:55.345Z,10.79
2018-11-02T06:58:55.364Z,10.90
2018-11-02T06:59:55.498Z,10.83
2018-11-02T07:00:55.443Z,10.86
2018-11-02T07:01:55.254Z,10.83
2018-11-02T07:02:55.230Z,10.83
2018-11-02T07:03:55.213Z,10.82
2018-11-02T07:04:55.188Z,10.82
2018-11-02T07:05:55.161Z,10.86
2018-11-02T07:06:55.145Z,10.84
2018-11-02T07:07:55.210Z,10.80
2018-11-02T07:08:55.093Z,10.84
2018-11-02T07:09:55.072Z,10.87
2018-11-02T07:10:55.065Z,10.83
2018-11-02T07:11:55.027Z,10.84
2018-11-02T07:12:55.002Z,10.79
2018-11-02T07:13:54.980Z,10.87
2018-11-02T07:14:54.959Z,10.90
2018-11-02T07:15:54.934Z,10.86
2018-11-02T07:16:54.927Z,10.83
2018-11-02T07:17:54.886Z,10.87
2018-11-02T07:18:54.930Z,10.94
2018-11-02T07:19:54.853Z,10.90
2018-11-02T07:20:54.821Z,10.87
2018-11-02T07:21:54.798Z,10.84
2018-11-02T07:22:54.776Z,10.90
2018-11-02T07:23:54.758Z,10.80
2018-11-02T07:24:54.731Z,10.87
2018-11-02T07:25:54.705Z,10.89
2018-11-02T07:26:54.683Z,10.87
2018-11-02T07:27:54.660Z,10.84
2018-11-02T07:28:54.651Z,10.95
2018-11-02T07:29:54.617Z,10.94
2018-11-02T07:30:54.629Z,10.83
2018-11-02T07:31:54.592Z,10.94
2018-11-02T07:32:54.552Z,10.92
2018-11-02T07:33:54.522Z,10.84
2018-11-02T07:34:54.499Z,10.94
2018-11-02T07:35:54.497Z,11.01
2018-11-02T07:36:54.456Z,10.90
2018-11-02T07:37:54.430Z,10.98
2018-11-02T07:38:54.419Z,10.86
2018-11-02T07:39:54.434Z,10.87
2018-11-02T07:40:54.371Z,10.94
2018-11-02T07:41:54.339Z,10.86
2018-11-02T07:42:54.316Z,10.92
2018-11-02T07:43:54.293Z,10.90
2018-11-02T07:44:54.269Z,10.84
2018-11-02T07:45:54.269Z,10.90
2018-11-02T07:46:54.228Z,10.90
2018-11-02T07:47:54.215Z,10.86
2018-11-02T07:48:54.184Z,10.92
2018-11-02T07:49:54.155Z,10.87
2018-11-02T07:50:54.133Z,10.87
2018-11-02T07:51:54.111Z,10.84
2018-11-02T07:52:54.093Z,10.90
2018-11-02T07:53:54.064Z,10.92
2018-11-02T07:54:54.044Z,10.90
2018-11-02T07:55:54.021Z,10.87
2018-11-02T07:56:53.997Z,10.90
2018-11-02T07:57:53.972Z,10.87
2018-11-02T07:58:53.951Z,10.95
2018-11-02T07:59:53.931Z,10.92
2018-11-02T08:00:53.906Z,10.87
2018-11-02T08:01:53.938Z,10.97
2018-11-02T08:02:53.863Z,10.97
2018-11-02T08:03:53.836Z,10.97
2018-11-02T08:04:53.821Z,10.97
2018-11-02T08:05:53.788Z,10.97
2018-11-02T08:06:53.816Z,11.01
2018-11-02T08:07:53.746Z,10.90
2018-11-02T08:08:53.723Z,10.92
2018-11-02T08:09:53.698Z,10.86
2018-11-02T08:10:53.676Z,10.98
2018-11-02T08:11:53.658Z,10.92
2018-11-02T08:12:53.632Z,10.92
2018-11-02T08:13:53.607Z,10.92
2018-11-02T08:14:53.583Z,10.94
2018-11-02T08:15:53.567Z,10.95
2018-11-02T08:16:53.541Z,10.92
2018-11-02T08:17:53.517Z,10.92
2018-11-02T08:18:53.527Z,10.95
2018-11-02T08:19:53.478Z,10.95
2018-11-02T08:20:53.449Z,11.00
2018-11-02T08:21:53.428Z,10.97
2018-11-02T08:22:53.416Z,11.02
2018-11-02T08:23:53.394Z,11.05
2018-11-02T08:24:53.357Z,11.05
2018-11-02T08:25:53.367Z,10.98
2018-11-02T08:26:53.311Z,11.05
2018-11-02T08:27:53.287Z,11.04
2018-11-02T08:28:53.268Z,11.02
2018-11-02T08:29:53.243Z,11.10
2018-11-02T08:30:53.219Z,11.01
2018-11-02T08:31:53.318Z,10.97
2018-11-02T08:32:53.173Z,10.95
2018-11-02T08:33:53.151Z,10.97
2018-11-02T08:34:53.127Z,10.98
2018-11-02T08:35:53.105Z,10.90
2018-11-02T08:36:53.100Z,10.97
2018-11-02T08:37:53.060Z,10.98
2018-11-02T08:38:53.039Z,10.95
2018-11-02T08:39:53.015Z,10.98
2018-11-02T08:40:52.991Z,10.95
2018-11-02T08:41:52.971Z,10.97
2018-11-02T08:42:52.943Z,10.97
2018-11-02T08:43:52.925Z,10.89
2018-11-02T08:44:52.901Z,10.86
2018-11-02T08:45:52.880Z,10.95
2018-11-02T08:46:52.855Z,10.94
2018-11-02T08:47:52.832Z,10.86
2018-11-02T08:48:52.808Z,10.89
2018-11-02T08:49:52.786Z,10.90
2018-11-02T08:50:52.770Z,10.92
2018-11-02T08:51:52.745Z,10.98
2018-11-02T08:52:52.720Z,11.01
2018-11-02T08:53:52.696Z,11.07
2018-11-02T08:54:52.671Z,11.02
2018-11-02T08:55:52.648Z,11.01
2018-11-02T08:56:52.629Z,11.08
2018-11-02T08:57:52.698Z,11.05
2018-11-02T08:58:52.768Z,11.08
2018-11-02T08:59:52.560Z,11.10
2018-11-02T09:00:52.536Z,11.08
2018-11-02T09:01:52.511Z,11.18
2018-11-02T09:02:52.487Z,11.15
2018-11-02T09:03:52.469Z,11.13
2018-11-02T09:04:52.455Z,11.15
2018-11-02T09:05:52.423Z,11.08
2018-11-02T09:06:52.396Z,11.08
2018-11-02T09:07:52.374Z,11.12
2018-11-02T09:08:52.350Z,11.08
2018-11-02T09:09:52.329Z,11.10
2018-11-02T09:10:52.305Z,11.12
2018-11-02T09:11:52.287Z,11.05
2018-11-02T09:12:52.261Z,11.10
2018-11-02T09:13:52.235Z,11.08
2018-11-02T09:14:52.227Z,11.01
2018-11-02T09:15:52.191Z,11.07
2018-11-02T09:16:52.170Z,11.04
2018-11-02T09:17:52.146Z,11.10
2018-11-02T09:18:52.197Z,11.12
2018-11-02T09:19:52.101Z,11.08
2018-11-02T09:20:52.077Z,11.04
2018-11-02T09:21:52.123Z,11.07
2018-11-02T09:22:52.030Z,11.08
2018-11-02T09:23:52.090Z,11.07
2018-11-02T09:24:51.986Z,11.07
2018-11-02T09:25:51.963Z,11.02
2018-11-02T09:26:51.984Z,11.04
2018-11-02T09:27:51.966Z,11.07
2018-11-02T09:28:51.893Z,11.19
2018-11-02T09:29:51.922Z,11.19
2018-11-02T09:30:51.847Z,11.13
2018-11-02T09:31:51.832Z,11.15
2018-11-02T09:32:51.802Z,11.10
2018-11-02T09:33:51.782Z,11.16
2018-11-02T09:34:51.757Z,11.12
2018-11-02T09:35:51.734Z,11.22
2018-11-02T09:36:51.710Z,11.18
2018-11-02T09:37:51.698Z,11.25
2018-11-02T09:38:51.664Z,11.23
2018-11-02T09:39:51.641Z,11.26
2018-11-02T09:40:51.619Z,11.25
2018-11-02T09:41:51.596Z,11.27
2018-11-02T09:42:51.749Z,11.23
2018-11-02T09:43:51.552Z,11.30
2018-11-02T09:44:51.528Z,11.38
2018-11-02T09:45:51.543Z,11.23
2018-11-02T09:46:51.482Z,11.26
2018-11-02T09:47:51.461Z,11.27
2018-11-02T09:48:51.437Z,11.31
2018-11-02T09:49:51.416Z,11.31
2018-11-02T09:50:51.464Z,11.23
2018-11-02T09:51:51.417Z,11.20
2018-11-02T09:52:51.347Z,11.20
2018-11-02T09:53:51.322Z,11.26
2018-11-02T09:54:51.302Z,11.33
2018-11-02T09:55:51.283Z,11.25
2018-11-02T09:56:51.255Z,11.20
2018-11-02T09:57:51.297Z,11.26
2018-11-02T09:58:51.215Z,11.27
2018-11-02T09:59:51.186Z,11.26
2018-11-02T10:00:51.163Z,11.25
2018-11-02T10:01:51.219Z,11.26
2018-11-02T10:02:51.122Z,11.26
2018-11-02T10:03:51.121Z,11.25
2018-11-02T10:04:51.101Z,11.20
2018-11-02T10:05:51.051Z,11.16
2018-11-02T10:06:51.027Z,11.22
2018-11-02T10:07:51.005Z,11.19
2018-11-02T10:08:50.981Z,11.25
2018-11-02T10:09:50.958Z,11.20
2018-11-02T10:10:50.936Z,11.25
2018-11-02T10:11:50.915Z,11.22
2018-11-02T10:12:50.891Z,11.12
2018-11-02T10:13:50.873Z,11.22
2018-11-02T10:14:50.851Z,11.20
2018-11-02T10:15:50.822Z,11.13
2018-11-02T10:16:50.798Z,11.15
2018-11-02T10:17:50.779Z,11.12
2018-11-02T10:18:50.754Z,11.13
2018-11-02T10:19:50.738Z,11.10
2018-11-02T10:20:50.708Z,11.12
2018-11-02T10:21:50.688Z,11.07
2018-11-02T10:22:50.662Z,11.12
2018-11-02T10:23:50.766Z,11.10
2018-11-02T10:24:50.617Z,11.10
2018-11-02T10:25:50.597Z,11.10
2018-11-02T10:26:50.580Z,11.07
2018-11-02T10:27:50.549Z,11.12
2018-11-02T10:28:50.525Z,11.19
2018-11-02T10:29:50.503Z,11.12
2018-11-02T10:30:50.484Z,11.16
2018-11-02T10:31:50.458Z,11.19
2018-11-02T10:32:50.463Z,11.16
2018-11-02T10:33:50.412Z,11.20
2018-11-02T10:34:50.389Z,11.15
2018-11-02T10:35:50.410Z,11.20
2018-11-02T10:36:50.350Z,11.22
2018-11-02T10:37:50.321Z,11.20
2018-11-02T10:38:50.344Z,11.23
2018-11-02T10:39:50.275Z,11.22
2018-11-02T10:40:50.253Z,11.12
2018-11-02T10:41:50.267Z,11.26
2018-11-02T10:42:50.208Z,11.25
2018-11-02T10:43:50.187Z,11.27
2018-11-02T10:44:50.228Z,11.23
2018-11-02T10:45:50.142Z,11.22
2018-11-02T10:46:50.116Z,11.22
2018-11-02T10:47:50.119Z,11.13
2018-11-02T10:48:50.071Z,11.22
2018-11-02T10:49:50.086Z,11.23
2018-11-02T10:50:50.035Z,11.16
2018-11-02T10:51:50.055Z,11.10
2018-11-02T10:52:49.979Z,11.12
2018-11-02T10:53:49.956Z,11.10
2018-11-02T10:54:49.933Z,11.13
2018-11-02T10:55:49.910Z,11.08
2018-11-02T10:56:49.889Z,11.07
2018-11-02T10:57:49.911Z,11.02
2018-11-02T10:58:49.844Z,11.08
2018-11-02T10:59:49.819Z,11.04
2018-11-02T11:00:49.936Z,11.10
2018-11-02T11:01:49.774Z,11.10
2018-11-02T11:02:49.751Z,11.10
2018-11-02T11:03:49.732Z,11.08
2018-11-02T11:04:49.754Z,11.05
2018-11-02T11:05:49.685Z,11.07
2018-11-02T11:06:49.661Z,11.07
2018-11-02T11:07:49.638Z,11.13
2018-11-02T11:08:49.620Z,11.10
2018-11-02T11:09:49.617Z,11.07
2018-11-02T11:10:49.629Z,11.18
2018-11-02T11:11:49.794Z,11.19
2018-11-02T11:12:49.813Z,11.18
2018-11-02T11:13:49.650Z,11.18
2018-11-02T11:14:49.480Z,11.18
2018-11-02T11:15:49.455Z,11.10
2018-11-02T11:16:49.433Z,11.13
2018-11-02T11:17:49.410Z,11.10
2018-11-02T11:18:49.386Z,11.12
2018-11-02T11:19:49.364Z,11.07
2018-11-02T11:20:49.360Z,11.10
2018-11-02T11:21:49.318Z,11.12
2018-11-02T11:22:49.327Z,11.13
2018-11-02T11:23:49.273Z,11.16
2018-11-02T11:24:49.250Z,11.10
2018-11-02T11:25:49.228Z,11.10
2018-11-02T11:26:49.215Z,11.08
2018-11-02T11:27:49.227Z,11.12
2018-11-02T11:28:49.158Z,11.07
2018-11-02T11:29:49.136Z,11.10
2018-11-02T11:30:49.120Z,11.13
2018-11-02T11:31:49.091Z,11.16
2018-11-02T11:32:49.069Z,11.10
2018-11-02T11:33:49.049Z,11.20
2018-11-02T11:34:49.022Z,11.20
2018-11-02T11:35:49.022Z,11.18
2018-11-02T11:36:49.027Z,11.26
2018-11-02T11:37:48.953Z,11.26
2018-11-02T11:38:48.934Z,11.27
2018-11-02T11:39:48.966Z,11.33
2018-11-02T11:40:48.889Z,11.23
2018-11-02T11:41:48.862Z,11.33
2018-11-02T11:42:48.851Z,11.37
2018-11-02T11:43:48.819Z,11.38
2018-11-02T11:44:48.796Z,11.34
2018-11-02T11:45:48.773Z,11.37
2018-11-02T11:46:48.750Z,11.40
2018-11-02T11:47:48.743Z,11.45
2018-11-02T11:48:48.874Z,11.37
2018-11-02T11:49:48.683Z,11.38
2018-11-02T11:50:48.661Z,11.44
2018-11-02T11:51:48.638Z,11.40
2018-11-02T11:52:48.615Z,11.45
2018-11-02T11:53:48.591Z,11.51
2018-11-02T11:54:48.570Z,11.49
2018-11-02T11:55:48.547Z,11.49
2018-11-02T11:56:48.525Z,11.52
2018-11-02T11:57:48.504Z,11.51
2018-11-02T11:58:48.480Z,11.52
2018-11-02T11:59:48.459Z,11.52
2018-11-02T12:00:48.436Z,11.53
2018-11-02T12:01:48.412Z,11.45
2018-11-02T12:02:48.389Z,11.44
2018-11-02T12:03:48.370Z,11.31
2018-11-02T12:04:48.412Z,11.35
2018-11-02T12:05:48.321Z,11.33
2018-11-02T12:06:48.299Z,11.31
2018-11-02T12:07:48.277Z,11.30
2018-11-02T12:08:48.261Z,11.38
2018-11-02T12:09:48.232Z,11.34
2018-11-02T12:10:48.211Z,11.35
2018-11-02T12:11:48.188Z,11.25
2018-11-02T12:12:48.183Z,11.35
2018-11-02T12:13:48.143Z,11.23
2018-11-02T12:14:48.120Z,11.25
2018-11-02T12:15:48.154Z,11.30
2018-11-02T12:16:48.078Z,11.25
2018-11-02T12:17:48.052Z,11.31
2018-11-02T12:18:48.059Z,11.38
2018-11-02T12:19:48.011Z,11.37
2018-11-02T12:20:47.985Z,11.38
2018-11-02T12:21:48.032Z,11.40
2018-11-02T12:22:47.939Z,11.41
2018-11-02T12:23:47.921Z,11.43
2018-11-02T12:24:47.895Z,11.48
2018-11-02T12:25:47.891Z,11.45
2018-11-02T12:26:47.877Z,11.35
2018-11-02T12:27:47.831Z,11.38
2018-11-02T12:28:47.856Z,11.53
2018-11-02T12:29:47.782Z,11.49
2018-11-02T12:30:47.767Z,11.49
2018-11-02T12:31:47.736Z,11.56
2018-11-02T12:32:47.720Z,11.56
2018-11-02T12:33:47.701Z,11.67
2018-11-02T12:34:47.669Z,11.68
2018-11-02T12:35:47.709Z,11.67
2018-11-02T12:36:47.671Z,11.71
2018-11-02T12:37:47.602Z,11.71
2018-11-02T12:38:47.632Z,11.70
2018-11-02T12:39:47.559Z,11.78
2018-11-02T12:40:47.534Z,11.71
2018-11-02T12:41:47.512Z,11.68
2018-11-02T12:42:47.514Z,11.68
2018-11-02T12:43:47.544Z,11.71
2018-11-02T12:44:47.461Z,11.80
2018-11-02T12:45:47.421Z,11.78
2018-11-02T12:46:47.399Z,11.83
2018-11-02T12:47:47.384Z,11.81
2018-11-02T12:48:47.595Z,11.89
2018-11-02T12:49:47.864Z,11.86
2018-11-02T12:50:47.309Z,11.88
2018-11-02T12:51:47.328Z,11.89